createdAt,value
2018-03-28T00:00:45.758Z,1010.17
2018-03-28T00:01:45.796Z,1010.13
2018-03-28T00:02:45.735Z,1010.16
2018-03-28T00:03:45.703Z,1010.14
2018-03-28T00:04:45.721Z,1010.09
2018-03-28T00:05:45.989Z,1010.1
2018-03-28T00:06:45.746Z,1010.06
2018-03-28T00:07:45.730Z,1010.11
2018-03-28T00:08:45.739Z,1010.06
2018-03-28T00:09:45.770Z,1010.1
2018-03-28T00:10:45.890Z,1010.09
2018-03-28T00:11:45.794Z,1010.09
2018-03-28T00:12:45.748Z,1010.07
2018-03-28T00:13:45.721Z,1010.07
2018-03-28T00:14:45.763Z,1010.11
2018-03-28T00:15:45.803Z,1010.1
2018-03-28T00:16:45.724Z,1010.08
2018-03-28T00:17:45.739Z,1010.13
2018-03-28T00:18:45.697Z,1010.11
2018-03-28T00:19:45.755Z,1010.04
2018-03-28T00:20:45.755Z,1010.09
2018-03-28T00:21:45.924Z,1010.07
2018-03-28T00:22:45.724Z,1010.03
2018-03-28T00:23:45.728Z,1010.03
2018-03-28T00:24:45.769Z,1009.99
2018-03-28T00:25:45.729Z,1009.99
2018-03-28T00:26:45.763Z,1009.97
2018-03-28T00:27:45.774Z,1009.96
2018-03-28T00:28:45.737Z,1010.02
2018-03-28T00:29:45.727Z,1009.97
2018-03-28T00:30:45.760Z,1009.96
2018-03-28T00:31:45.744Z,1009.93
2018-03-28T00:32:45.738Z,1009.98
2018-03-28T00:33:45.757Z,1009.96
2018-03-28T00:34:45.738Z,1010.01
2018-03-28T00:35:45.760Z,1009.99
2018-03-28T00:36:45.800Z,1009.98
2018-03-28T00:37:45.717Z,1009.93
2018-03-28T00:38:45.714Z,1009.95
2018-03-28T00:39:45.716Z,1009.92
2018-03-28T00:40:45.737Z,1009.92
2018-03-28T00:41:45.757Z,1009.87
2018-03-28T00:42:45.788Z,1009.88
2018-03-28T00:43:45.728Z,1009.86
2018-03-28T00:44:45.717Z,1009.85
2018-03-28T00:45:45.704Z,1009.86
2018-03-28T00:46:45.753Z,1009.84
2018-03-28T00:47:45.722Z,1009.81
2018-03-28T00:48:45.712Z,1009.84
2018-03-28T00:49:45.710Z,1009.84
2018-03-28T00:50:45.725Z,1009.8
2018-03-28T00:51:45.731Z,1009.82
2018-03-28T00:52:45.730Z,1009.81
2018-03-28T00:53:45.779Z,1009.79
2018-03-28T00:54:45.711Z,1009.8
2018-03-28T00:55:45.718Z,1009.81
2018-03-28T00:56:45.750Z,1009.8
2018-03-28T00:57:45.744Z,1009.81
2018-03-28T00:58:45.704Z,1009.83
2018-03-28T00:59:45.707Z,1009.82
2018-03-28T01:00:45.745Z,1009.83
2018-03-28T01:01:45.710Z,1009.8
2018-03-28T01:02:45.755Z,1009.75
2018-03-28T01:03:45.699Z,1009.76
2018-03-28T01:04:45.713Z,1009.76
2018-03-28T01:05:45.731Z,1009.75
2018-03-28T01:06:45.735Z,1009.73
2018-03-28T01:07:45.735Z,1009.81
2018-03-28T01:08:45.702Z,1009.78
2018-03-28T01:09:45.731Z,1009.72
2018-03-28T01:10:45.708Z,1009.78
2018-03-28T01:11:45.717Z,1009.71
2018-03-28T01:12:45.724Z,1009.75
2018-03-28T01:13:45.768Z,1009.77
2018-03-28T01:14:45.710Z,1009.75
2018-03-28T01:15:45.726Z,1009.74
2018-03-28T01:16:45.713Z,1009.74
2018-03-28T01:17:45.715Z,1009.78
2018-03-28T01:18:45.993Z,1009.72
2018-03-28T01:19:45.712Z,1009.75
2018-03-28T01:20:45.712Z,1009.69
2018-03-28T01:21:45.727Z,1009.75
2018-03-28T01:22:45.722Z,1009.68
2018-03-28T01:23:45.718Z,1009.76
2018-03-28T01:24:45.804Z,1009.75
2018-03-28T01:25:45.707Z,1009.71
2018-03-28T01:26:45.695Z,1009.74
2018-03-28T01:27:45.690Z,1009.8
2018-03-28T01:28:45.740Z,1009.74
2018-03-28T01:29:45.696Z,1009.76
2018-03-28T01:30:45.723Z,1009.75
2018-03-28T01:31:45.703Z,1009.71
2018-03-28T01:32:45.719Z,1009.66
2018-03-28T01:33:45.687Z,1009.75
2018-03-28T01:34:45.701Z,1009.7
2018-03-28T01:35:45.737Z,1009.69
2018-03-28T01:36:45.704Z,1009.65
2018-03-28T01:37:45.697Z,1009.7
2018-03-28T01:38:45.707Z,1009.64
2018-03-28T01:39:45.690Z,1009.65
2018-03-28T01:40:45.717Z,1009.65
2018-03-28T01:41:45.700Z,1009.64
2018-03-28T01:42:45.673Z,1009.67
2018-03-28T01:43:45.690Z,1009.68
2018-03-28T01:44:45.740Z,1009.68
2018-03-28T01:45:45.709Z,1009.7
2018-03-28T01:46:45.695Z,1009.71
2018-03-28T01:47:45.697Z,1009.7
2018-03-28T01:48:45.695Z,1009.64
2018-03-28T01:49:45.709Z,1009.67
2018-03-28T01:50:45.721Z,1009.67
2018-03-28T01:51:45.799Z,1009.63
2018-03-28T01:52:45.792Z,1009.62
2018-03-28T01:53:45.718Z,1009.63
2018-03-28T01:54:45.678Z,1009.61
2018-03-28T01:55:45.710Z,1009.58
2018-03-28T01:56:45.704Z,1009.56
2018-03-28T01:57:45.713Z,1009.57
2018-03-28T01:58:45.699Z,1009.55
2018-03-28T01:59:45.689Z,1009.59
2018-03-28T02:00:45.684Z,1009.54
2018-03-28T02:01:45.694Z,1009.55
2018-03-28T02:02:45.721Z,1009.54
2018-03-28T02:03:45.710Z,1009.56
2018-03-28T02:04:45.687Z,1009.55
2018-03-28T02:05:45.716Z,1009.57
2018-03-28T02:06:45.715Z,1009.55
2018-03-28T02:07:45.695Z,1009.55
2018-03-28T02:08:45.687Z,1009.56
2018-03-28T02:09:45.729Z,1009.55
2018-03-28T02:10:45.735Z,1009.55
2018-03-28T02:11:45.712Z,1009.52
2018-03-28T02:12:45.721Z,1009.49
2018-03-28T02:13:45.716Z,1009.54
2018-03-28T02:14:45.687Z,1009.51
2018-03-28T02:15:45.855Z,1009.51
2018-03-28T02:16:45.689Z,1009.53
2018-03-28T02:17:45.698Z,1009.49
2018-03-28T02:18:45.729Z,1009.47
2018-03-28T02:19:45.704Z,1009.5
2018-03-28T02:20:45.681Z,1009.5
2018-03-28T02:21:45.723Z,1009.47
2018-03-28T02:22:45.702Z,1009.47
2018-03-28T02:23:45.691Z,1009.5
2018-03-28T02:24:45.742Z,1009.46
2018-03-28T02:25:45.714Z,1009.47
2018-03-28T02:26:45.679Z,1009.45
2018-03-28T02:27:45.665Z,1009.43
2018-03-28T02:28:45.680Z,1009.46
2018-03-28T02:29:45.674Z,1009.43
2018-03-28T02:30:45.713Z,1009.48
2018-03-28T02:31:45.690Z,1009.47
2018-03-28T02:32:45.730Z,1009.43
2018-03-28T02:33:45.711Z,1009.46
2018-03-28T02:34:45.687Z,1009.44
2018-03-28T02:35:45.702Z,1009.41
2018-03-28T02:36:45.666Z,1009.46
2018-03-28T02:37:45.728Z,1009.46
2018-03-28T02:38:45.709Z,1009.41
2018-03-28T02:39:45.695Z,1009.39
2018-03-28T02:40:45.697Z,1009.37
2018-03-28T02:41:45.668Z,1009.4
2018-03-28T02:42:45.694Z,1009.37
2018-03-28T02:43:45.704Z,1009.38
2018-03-28T02:44:45.691Z,1009.4
2018-03-28T02:45:45.690Z,1009.44
2018-03-28T02:46:45.760Z,1009.43
2018-03-28T02:47:45.670Z,1009.4
2018-03-28T02:48:45.678Z,1009.39
2018-03-28T02:49:45.716Z,1009.38
2018-03-28T02:50:45.722Z,1009.38
2018-03-28T02:51:45.677Z,1009.42
2018-03-28T02:52:45.683Z,1009.4
2018-03-28T02:53:45.714Z,1009.36
2018-03-28T02:54:45.681Z,1009.37
2018-03-28T02:55:45.771Z,1009.37
2018-03-28T02:56:45.682Z,1009.4
2018-03-28T02:57:45.660Z,1009.39
2018-03-28T02:58:45.669Z,1009.37
2018-03-28T02:59:45.666Z,1009.42
2018-03-28T03:00:45.675Z,1009.38
2018-03-28T03:01:45.852Z,1009.39
2018-03-28T03:02:45.683Z,1009.4
2018-03-28T03:03:45.679Z,1009.39
2018-03-28T03:04:45.732Z,1009.42
2018-03-28T03:05:45.659Z,1009.45
2018-03-28T03:06:45.718Z,1009.46
2018-03-28T03:07:45.674Z,1009.46
2018-03-28T03:08:45.680Z,1009.48
2018-03-28T03:09:45.675Z,1009.5
2018-03-28T03:10:45.670Z,1009.48
2018-03-28T03:11:45.668Z,1009.45
2018-03-28T03:12:45.677Z,1009.46
2018-03-28T03:13:45.821Z,1009.47
2018-03-28T03:14:45.673Z,1009.45
2018-03-28T03:15:45.666Z,1009.46
2018-03-28T03:16:45.703Z,1009.48
2018-03-28T03:17:45.706Z,1009.52
2018-03-28T03:18:45.665Z,1009.51
2018-03-28T03:19:45.666Z,1009.49
2018-03-28T03:20:45.682Z,1009.5
2018-03-28T03:21:45.661Z,1009.47
2018-03-28T03:22:45.682Z,1009.51
2018-03-28T03:23:45.719Z,1009.53
2018-03-28T03:24:45.680Z,1009.55
2018-03-28T03:25:45.668Z,1009.6
2018-03-28T03:26:45.667Z,1009.6
2018-03-28T03:27:45.680Z,1009.62
2018-03-28T03:28:45.665Z,1009.57
2018-03-28T03:29:45.682Z,1009.6
2018-03-28T03:30:45.662Z,1009.59
2018-03-28T03:31:45.676Z,1009.56
2018-03-28T03:32:45.685Z,1009.6
2018-03-28T03:33:45.662Z,1009.58
2018-03-28T03:34:45.703Z,1009.61
2018-03-28T03:35:45.667Z,1009.61
2018-03-28T03:36:45.662Z,1009.66
2018-03-28T03:37:45.676Z,1009.66
2018-03-28T03:38:45.658Z,1009.63
2018-03-28T03:39:45.678Z,1009.65
2018-03-28T03:40:45.661Z,1009.68
2018-03-28T03:41:45.668Z,1009.64
2018-03-28T03:42:45.649Z,1009.62
2018-03-28T03:43:45.707Z,1009.65
2018-03-28T03:44:45.652Z,1009.64
2018-03-28T03:45:45.637Z,1009.64
2018-03-28T03:46:45.651Z,1009.63
2018-03-28T03:47:45.729Z,1009.64
2018-03-28T03:48:45.658Z,1009.62
2018-03-28T03:49:45.677Z,1009.61
2018-03-28T03:50:45.716Z,1009.65
2018-03-28T03:51:45.638Z,1009.64
2018-03-28T03:52:45.805Z,1009.65
2018-03-28T03:53:45.786Z,1009.65
2018-03-28T03:54:45.668Z,1009.68
2018-03-28T03:55:45.663Z,1009.69
2018-03-28T03:56:45.653Z,1009.69
2018-03-28T03:57:45.631Z,1009.69
2018-03-28T03:58:45.850Z,1009.7
2018-03-28T03:59:45.656Z,1009.73
2018-03-28T04:00:45.643Z,1009.72
2018-03-28T04:01:45.681Z,1009.7
2018-03-28T04:02:45.647Z,1009.73
2018-03-28T04:03:45.658Z,1009.72
2018-03-28T04:04:45.656Z,1009.71
2018-03-28T04:05:45.669Z,1009.71
2018-03-28T04:06:45.651Z,1009.69
2018-03-28T04:07:45.647Z,1009.68
2018-03-28T04:08:45.656Z,1009.72
2018-03-28T04:09:45.666Z,1009.66
2018-03-28T04:10:45.635Z,1009.69
2018-03-28T04:11:45.641Z,1009.67
2018-03-28T04:12:45.633Z,1009.73
2018-03-28T04:13:45.639Z,1009.7
2018-03-28T04:14:45.652Z,1009.74
2018-03-28T04:15:45.684Z,1009.71
2018-03-28T04:16:45.652Z,1009.67
2018-03-28T04:17:45.658Z,1009.65
2018-03-28T04:18:45.714Z,1009.66
2018-03-28T04:19:45.641Z,1009.67
2018-03-28T04:20:45.666Z,1009.64
2018-03-28T04:21:45.733Z,1009.65
2018-03-28T04:22:45.655Z,1009.64
2018-03-28T04:23:45.643Z,1009.71
2018-03-28T04:24:45.680Z,1009.72
2018-03-28T04:25:45.637Z,1009.71
2018-03-28T04:26:45.894Z,1009.76
2018-03-28T04:27:45.680Z,1009.75
2018-03-28T04:28:45.737Z,1009.77
2018-03-28T04:29:45.660Z,1009.77
2018-03-28T04:30:45.657Z,1009.78
2018-03-28T04:31:45.673Z,1009.78
2018-03-28T04:32:45.650Z,1009.78
2018-03-28T04:33:45.676Z,1009.81
2018-03-28T04:34:45.664Z,1009.8
2018-03-28T04:35:45.630Z,1009.81
2018-03-28T04:36:45.672Z,1009.8
2018-03-28T04:37:45.675Z,1009.74
2018-03-28T04:38:45.643Z,1009.82
2018-03-28T04:39:45.681Z,1009.82
2018-03-28T04:40:45.685Z,1009.81
2018-03-28T04:41:45.661Z,1009.79
2018-03-28T04:42:45.700Z,1009.81
2018-03-28T04:43:45.794Z,1009.8
2018-03-28T04:44:45.642Z,1009.8
2018-03-28T04:45:45.666Z,1009.84
2018-03-28T04:46:45.648Z,1009.85
2018-03-28T04:47:45.632Z,1009.84
2018-03-28T04:48:45.629Z,1009.86
2018-03-28T04:49:45.690Z,1009.81
2018-03-28T04:50:45.809Z,1009.86
2018-03-28T04:51:45.650Z,1009.84
2018-03-28T04:52:45.665Z,1009.87
2018-03-28T04:53:45.690Z,1009.93
2018-03-28T04:54:45.630Z,1009.91
2018-03-28T04:55:45.822Z,1009.91
2018-03-28T04:56:45.640Z,1009.91
2018-03-28T04:57:45.629Z,1009.91
2018-03-28T04:58:45.652Z,1009.85
2018-03-28T04:59:45.636Z,1009.89
2018-03-28T05:00:45.663Z,1009.89
2018-03-28T05:01:45.637Z,1009.87
2018-03-28T05:02:45.636Z,1009.86
2018-03-28T05:03:45.626Z,1009.85
2018-03-28T05:04:45.630Z,1009.86
2018-03-28T05:05:45.676Z,1009.86
2018-03-28T05:06:45.638Z,1009.88
2018-03-28T05:07:45.637Z,1009.87
2018-03-28T05:08:45.672Z,1009.9
2018-03-28T05:09:45.663Z,1009.9
2018-03-28T05:10:45.623Z,1009.83
2018-03-28T05:11:45.640Z,1009.83
2018-03-28T05:12:45.652Z,1009.82
2018-03-28T05:13:45.665Z,1009.78
2018-03-28T05:14:45.642Z,1009.71
2018-03-28T05:15:45.936Z,1009.67
2018-03-28T05:16:45.625Z,1009.59
2018-03-28T05:17:45.621Z,1009.61
2018-03-28T05:18:45.631Z,1009.68
2018-03-28T05:19:45.626Z,1009.68
2018-03-28T05:20:45.677Z,1009.68
2018-03-28T05:21:45.606Z,1009.69
2018-03-28T05:22:45.840Z,1009.73
2018-03-28T05:23:45.640Z,1009.74
2018-03-28T05:24:45.634Z,1009.7
2018-03-28T05:25:45.654Z,1009.7
2018-03-28T05:26:45.625Z,1009.7
2018-03-28T05:27:45.637Z,1009.69
2018-03-28T05:28:45.632Z,1009.69
2018-03-28T05:29:45.619Z,1009.65
2018-03-28T05:30:45.685Z,1009.67
2018-03-28T05:31:45.641Z,1009.64
2018-03-28T05:32:45.621Z,1009.7
2018-03-28T05:33:45.599Z,1009.69
2018-03-28T05:34:45.633Z,1009.66
2018-03-28T05:35:45.622Z,1009.69
2018-03-28T05:36:45.634Z,1009.68
2018-03-28T05:37:45.632Z,1009.67
2018-03-28T05:38:45.622Z,1009.67
2018-03-28T05:39:45.610Z,1009.63
2018-03-28T05:40:45.885Z,1009.67
2018-03-28T05:41:45.632Z,1009.72
2018-03-28T05:42:45.721Z,1009.77
2018-03-28T05:43:45.606Z,1009.76
2018-03-28T05:44:45.620Z,1009.84
2018-03-28T05:45:45.616Z,1009.84
2018-03-28T05:46:45.627Z,1009.84
2018-03-28T05:47:45.616Z,1009.87
2018-03-28T05:48:45.638Z,1009.86
2018-03-28T05:49:45.781Z,1009.92
2018-03-28T05:50:45.607Z,1009.89
2018-03-28T05:51:45.727Z,1009.95
2018-03-28T05:52:45.616Z,1009.94
2018-03-28T05:53:45.732Z,1009.95
2018-03-28T05:54:45.754Z,1009.98
2018-03-28T05:55:45.606Z,1009.98
2018-03-28T05:56:45.653Z,1009.98
2018-03-28T05:57:45.647Z,1009.97
2018-03-28T05:58:45.616Z,1009.98
2018-03-28T05:59:45.626Z,1009.98
2018-03-28T06:00:45.662Z,1009.95
2018-03-28T06:01:45.625Z,1009.94
2018-03-28T06:02:45.609Z,1010.02
2018-03-28T06:03:45.627Z,1010
2018-03-28T06:04:45.617Z,1010.02
2018-03-28T06:05:45.628Z,1010.02
2018-03-28T06:06:45.647Z,1010.03
2018-03-28T06:07:45.604Z,1009.99
2018-03-28T06:08:45.619Z,1009.99
2018-03-28T06:09:45.631Z,1009.96
2018-03-28T06:10:45.612Z,1009.94
2018-03-28T06:11:45.688Z,1009.96
2018-03-28T06:12:45.653Z,1009.99
2018-03-28T06:13:45.643Z,1009.98
2018-03-28T06:14:45.600Z,1009.97
2018-03-28T06:15:45.646Z,1009.98
2018-03-28T06:16:45.652Z,1009.97
2018-03-28T06:17:45.627Z,1009.95
2018-03-28T06:18:45.622Z,1009.96
2018-03-28T06:19:45.607Z,1009.92
2018-03-28T06:20:45.595Z,1009.93
2018-03-28T06:21:45.665Z,1009.92
2018-03-28T06:22:45.670Z,1009.89
2018-03-28T06:23:45.606Z,1009.91
2018-03-28T06:24:45.636Z,1009.96
2018-03-28T06:25:45.620Z,1010.01
2018-03-28T06:26:45.635Z,1010
2018-03-28T06:27:45.604Z,1010.02
2018-03-28T06:28:45.603Z,1009.99
2018-03-28T06:29:45.609Z,1010.01
2018-03-28T06:30:45.624Z,1010.01
2018-03-28T06:31:45.641Z,1009.98
2018-03-28T06:32:45.611Z,1009.98
2018-03-28T06:33:45.620Z,1009.92
2018-03-28T06:34:45.628Z,1009.96
2018-03-28T06:35:45.601Z,1009.95
2018-03-28T06:36:45.628Z,1009.92
2018-03-28T06:37:45.610Z,1009.98
2018-03-28T06:38:45.593Z,1009.96
2018-03-28T06:39:45.606Z,1009.99
2018-03-28T06:40:45.593Z,1010
2018-03-28T06:41:45.639Z,1010.04
2018-03-28T06:42:45.587Z,1010.04
2018-03-28T06:43:45.602Z,1010.04
2018-03-28T06:44:45.605Z,1010.04
2018-03-28T06:45:45.641Z,1010.02
2018-03-28T06:46:45.777Z,1010.06
2018-03-28T06:47:45.593Z,1010.01
2018-03-28T06:48:45.640Z,1009.98
2018-03-28T06:49:45.594Z,1010.03
2018-03-28T06:50:45.603Z,1010.02
2018-03-28T06:51:45.624Z,1010.04
2018-03-28T06:52:45.590Z,1010.01
2018-03-28T06:53:45.654Z,1010.01
2018-03-28T06:54:45.613Z,1010.04
2018-03-28T06:55:45.591Z,1010.02
2018-03-28T06:56:45.629Z,1010.03
2018-03-28T06:57:45.624Z,1010.05
2018-03-28T06:58:45.600Z,1010.07
2018-03-28T06:59:45.744Z,1010.07
2018-03-28T07:00:45.582Z,1010.05
2018-03-28T07:01:45.590Z,1010.05
2018-03-28T07:02:45.587Z,1010.02
2018-03-28T07:03:45.609Z,1009.94
2018-03-28T07:04:45.603Z,1009.98
2018-03-28T07:05:45.607Z,1009.94
2018-03-28T07:06:45.588Z,1009.97
2018-03-28T07:07:45.596Z,1009.97
2018-03-28T07:08:45.612Z,1009.96
2018-03-28T07:09:45.579Z,1009.92
2018-03-28T07:10:45.604Z,1009.92
2018-03-28T07:11:45.589Z,1009.91
2018-03-28T07:12:45.637Z,1009.95
2018-03-28T07:13:45.585Z,1009.99
2018-03-28T07:14:45.636Z,1009.96
2018-03-28T07:15:45.648Z,1010.01
2018-03-28T07:16:45.595Z,1010.01
2018-03-28T07:17:45.582Z,1009.97
2018-03-28T07:18:45.589Z,1010
2018-03-28T07:19:45.712Z,1010.02
2018-03-28T07:20:45.841Z,1010.07
2018-03-28T07:21:45.587Z,1009.99
2018-03-28T07:22:45.578Z,1010.02
2018-03-28T07:23:45.581Z,1010
2018-03-28T07:24:45.703Z,1010.04
2018-03-28T07:25:45.589Z,1009.97
2018-03-28T07:26:45.597Z,1010.04
2018-03-28T07:27:45.742Z,1010
2018-03-28T07:28:45.580Z,1010.02
2018-03-28T07:29:45.615Z,1010
2018-03-28T07:30:45.582Z,1010.08
2018-03-28T07:31:45.601Z,1010.02
2018-03-28T07:32:45.644Z,1010.04
2018-03-28T07:33:45.583Z,1010.08
2018-03-28T07:34:45.569Z,1010.07
2018-03-28T07:35:45.578Z,1010.07
2018-03-28T07:36:45.582Z,1010.09
2018-03-28T07:37:45.589Z,1010.06
2018-03-28T07:38:45.575Z,1010.03
2018-03-28T07:39:45.866Z,1010.1
2018-03-28T07:40:45.576Z,1010.06
2018-03-28T07:41:45.588Z,1010.05
2018-03-28T07:42:45.589Z,1010.1
2018-03-28T07:43:45.582Z,1010.08
2018-03-28T07:44:45.609Z,1010.04
2018-03-28T07:45:45.594Z,1010.06
2018-03-28T07:46:45.579Z,1010.04
2018-03-28T07:47:45.577Z,1010.01
2018-03-28T07:48:45.577Z,1010.05
2018-03-28T07:49:45.598Z,1010.01
2018-03-28T07:50:45.587Z,1010.03
2018-03-28T07:51:45.610Z,1010
2018-03-28T07:52:45.580Z,1010.02
2018-03-28T07:53:45.607Z,1009.99
2018-03-28T07:54:45.742Z,1009.95
2018-03-28T07:55:45.777Z,1010.03
2018-03-28T07:56:45.567Z,1010.08
2018-03-28T07:57:45.622Z,1009.96
2018-03-28T07:58:45.601Z,1010.05
2018-03-28T07:59:45.624Z,1009.98
2018-03-28T08:00:45.565Z,1010.03
2018-03-28T08:01:45.574Z,1010
2018-03-28T08:02:45.584Z,1010.02
2018-03-28T08:03:45.580Z,1009.98
2018-03-28T08:04:45.610Z,1009.98
2018-03-28T08:05:45.594Z,1009.97
2018-03-28T08:06:45.574Z,1009.99
2018-03-28T08:07:45.569Z,1009.99
2018-03-28T08:08:45.576Z,1010
2018-03-28T08:09:45.602Z,1010.02
2018-03-28T08:10:45.593Z,1009.98
2018-03-28T08:11:45.592Z,1009.95
2018-03-28T08:12:45.591Z,1009.92
2018-03-28T08:13:45.575Z,1009.89
2018-03-28T08:14:45.587Z,1009.8
2018-03-28T08:15:45.598Z,1009.91
2018-03-28T08:16:45.583Z,1009.89
2018-03-28T08:17:45.576Z,1009.83
2018-03-28T08:18:45.563Z,1009.84
2018-03-28T08:19:45.629Z,1009.85
2018-03-28T08:20:45.561Z,1009.79
2018-03-28T08:21:45.578Z,1009.82
2018-03-28T08:22:45.575Z,1009.78
2018-03-28T08:23:45.576Z,1009.74
2018-03-28T08:24:45.571Z,1009.7
2018-03-28T08:25:45.839Z,1009.73
2018-03-28T08:26:45.605Z,1009.71
2018-03-28T08:27:45.579Z,1009.72
2018-03-28T08:28:45.569Z,1009.74
2018-03-28T08:29:45.570Z,1009.66
2018-03-28T08:30:45.593Z,1009.63
2018-03-28T08:31:45.569Z,1009.69
2018-03-28T08:32:45.567Z,1009.72
2018-03-28T08:33:45.560Z,1009.64
2018-03-28T08:34:45.573Z,1009.69
2018-03-28T08:35:45.598Z,1009.7
2018-03-28T08:36:45.571Z,1009.66
2018-03-28T08:37:45.568Z,1009.65
2018-03-28T08:38:45.563Z,1009.67
2018-03-28T08:39:45.599Z,1009.63
2018-03-28T08:40:45.600Z,1009.66
2018-03-28T08:41:45.563Z,1009.65
2018-03-28T08:42:45.563Z,1009.66
2018-03-28T08:43:45.555Z,1009.68
2018-03-28T08:44:45.558Z,1009.58
2018-03-28T08:45:45.580Z,1009.65
2018-03-28T08:46:45.567Z,1009.64
2018-03-28T08:47:45.569Z,1009.6
2018-03-28T08:48:45.562Z,1009.59
2018-03-28T08:49:46.362Z,1009.65
2018-03-28T08:50:45.596Z,1009.66
2018-03-28T08:51:45.570Z,1009.66
2018-03-28T08:52:45.569Z,1009.63
2018-03-28T08:53:45.615Z,1009.58
2018-03-28T08:54:45.586Z,1009.65
2018-03-28T08:55:45.572Z,1009.6
2018-03-28T08:56:45.762Z,1009.61
2018-03-28T08:57:45.561Z,1009.58
2018-03-28T08:58:45.580Z,1009.64
2018-03-28T08:59:45.581Z,1009.58
2018-03-28T09:00:45.670Z,1009.6
2018-03-28T09:01:45.600Z,1009.55
2018-03-28T09:02:45.631Z,1009.57
2018-03-28T09:03:45.569Z,1009.55
2018-03-28T09:04:45.682Z,1009.62
2018-03-28T09:05:45.573Z,1009.58
2018-03-28T09:06:45.640Z,1009.59
2018-03-28T09:07:45.567Z,1009.57
2018-03-28T09:08:45.560Z,1009.51
2018-03-28T09:09:45.596Z,1009.54
2018-03-28T09:10:45.590Z,1009.52
2018-03-28T09:11:45.727Z,1009.55
2018-03-28T09:12:45.565Z,1009.54
2018-03-28T09:13:45.580Z,1009.51
2018-03-28T09:14:45.561Z,1009.53
2018-03-28T09:15:45.570Z,1009.54
2018-03-28T09:16:45.594Z,1009.55
2018-03-28T09:17:45.554Z,1009.57
2018-03-28T09:18:45.561Z,1009.51
2018-03-28T09:19:45.552Z,1009.53
2018-03-28T09:20:46.181Z,1009.48
2018-03-28T09:21:45.565Z,1009.42
2018-03-28T09:22:45.571Z,1009.5
2018-03-28T09:23:45.573Z,1009.48
2018-03-28T09:24:45.547Z,1009.49
2018-03-28T09:25:45.557Z,1009.45
2018-03-28T09:26:45.573Z,1009.45
2018-03-28T09:27:45.618Z,1009.42
2018-03-28T09:28:45.571Z,1009.43
2018-03-28T09:29:45.557Z,1009.44
2018-03-28T09:30:45.548Z,1009.37
2018-03-28T09:31:45.644Z,1009.39
2018-03-28T09:32:45.686Z,1009.35
2018-03-28T09:33:45.542Z,1009.34
2018-03-28T09:34:45.535Z,1009.41
2018-03-28T09:35:45.559Z,1009.33
2018-03-28T09:36:45.722Z,1009.36
2018-03-28T09:37:45.558Z,1009.37
2018-03-28T09:38:45.550Z,1009.35
2018-03-28T09:39:45.536Z,1009.31
2018-03-28T09:40:45.673Z,1009.32
2018-03-28T09:41:45.615Z,1009.3
2018-03-28T09:42:45.779Z,1009.26
2018-03-28T09:43:45.544Z,1009.23
2018-03-28T09:44:45.555Z,1009.23
2018-03-28T09:45:45.542Z,1009.24
2018-03-28T09:46:45.583Z,1009.28
2018-03-28T09:47:45.580Z,1009.27
2018-03-28T09:48:45.538Z,1009.23
2018-03-28T09:49:45.548Z,1009.21
2018-03-28T09:50:45.550Z,1009.22
2018-03-28T09:51:45.592Z,1009.16
2018-03-28T09:52:45.545Z,1009.17
2018-03-28T09:53:45.555Z,1009.14
2018-03-28T09:54:45.585Z,1009.1
2018-03-28T09:55:45.639Z,1009.16
2018-03-28T09:56:45.684Z,1009.15
2018-03-28T09:57:45.573Z,1009.19
2018-03-28T09:58:45.614Z,1009.18
2018-03-28T09:59:45.535Z,1009.11
2018-03-28T10:00:45.576Z,1009.11
2018-03-28T10:01:45.574Z,1009.09
2018-03-28T10:02:45.535Z,1009.07
2018-03-28T10:03:45.557Z,1009.09
2018-03-28T10:04:45.537Z,1008.99
2018-03-28T10:05:45.592Z,1009.01
2018-03-28T10:06:45.589Z,1009.01
2018-03-28T10:07:45.572Z,1009.02
2018-03-28T10:08:45.536Z,1008.99
2018-03-28T10:09:45.619Z,1008.93
2018-03-28T10:10:45.610Z,1008.94
2018-03-28T10:11:45.585Z,1008.9
2018-03-28T10:12:45.554Z,1008.95
2018-03-28T10:13:45.551Z,1008.88
2018-03-28T10:14:45.563Z,1008.88
2018-03-28T10:15:45.659Z,1008.83
2018-03-28T10:16:45.554Z,1008.82
2018-03-28T10:17:45.534Z,1008.78
2018-03-28T10:18:45.582Z,1008.78
2018-03-28T10:19:45.605Z,1008.77
2018-03-28T10:20:45.538Z,1008.75
2018-03-28T10:21:45.569Z,1008.74
2018-03-28T10:22:45.542Z,1008.71
2018-03-28T10:23:45.561Z,1008.7
2018-03-28T10:24:45.596Z,1008.71
2018-03-28T10:25:45.545Z,1008.65
2018-03-28T10:26:45.550Z,1008.73
2018-03-28T10:27:45.532Z,1008.72
2018-03-28T10:28:45.753Z,1008.67
2018-03-28T10:29:45.576Z,1008.78
2018-03-28T10:30:45.548Z,1008.74
2018-03-28T10:31:45.547Z,1008.68
2018-03-28T10:32:45.570Z,1008.59
2018-03-28T10:33:45.600Z,1008.62
2018-03-28T10:34:45.548Z,1008.73
2018-03-28T10:35:45.544Z,1008.67
2018-03-28T10:36:45.586Z,1008.62
2018-03-28T10:37:45.549Z,1008.63
2018-03-28T10:38:45.561Z,1008.78
2018-03-28T10:39:45.581Z,1008.71
2018-03-28T10:40:45.562Z,1008.65
2018-03-28T10:41:45.614Z,1008.56
2018-03-28T10:42:45.546Z,1008.52
2018-03-28T10:43:45.567Z,1008.57
2018-03-28T10:44:45.544Z,1008.58
2018-03-28T10:45:45.577Z,1008.5
2018-03-28T10:46:45.512Z,1008.5
2018-03-28T10:47:45.539Z,1008.36
2018-03-28T10:48:45.752Z,1008.44
2018-03-28T10:49:45.526Z,1008.47
2018-03-28T10:50:45.543Z,1008.31
2018-03-28T10:51:45.563Z,1008.34
2018-03-28T10:52:45.546Z,1008.34
2018-03-28T10:53:45.579Z,1008.27
2018-03-28T10:54:45.574Z,1008.24
2018-03-28T10:55:45.524Z,1008.26
2018-03-28T10:56:45.520Z,1008.24
2018-03-28T10:57:45.564Z,1008.27
2018-03-28T10:58:45.542Z,1008.25
2018-03-28T10:59:45.625Z,1008.21
2018-03-28T11:00:45.516Z,1008.22
2018-03-28T11:01:45.557Z,1008.23
2018-03-28T11:02:45.573Z,1008.2
2018-03-28T11:03:45.611Z,1008.2
2018-03-28T11:04:45.855Z,1008.25
2018-03-28T11:05:45.518Z,1008.27
2018-03-28T11:06:45.502Z,1008.17
2018-03-28T11:07:45.572Z,1008.17
2018-03-28T11:08:45.576Z,1008.13
2018-03-28T11:09:45.550Z,1008.07
2018-03-28T11:10:45.546Z,1008.04
2018-03-28T11:11:45.512Z,1008.06
2018-03-28T11:12:45.542Z,1008.02
2018-03-28T11:13:45.527Z,1007.97
2018-03-28T11:14:45.545Z,1007.89
2018-03-28T11:15:45.519Z,1007.87
2018-03-28T11:16:45.530Z,1007.9
2018-03-28T11:17:45.510Z,1007.83
2018-03-28T11:18:45.511Z,1007.83
2018-03-28T11:19:45.617Z,1007.93
2018-03-28T11:20:45.751Z,1007.89
2018-03-28T11:21:45.543Z,1007.74
2018-03-28T11:22:45.565Z,1007.81
2018-03-28T11:23:45.554Z,1007.79
2018-03-28T11:24:45.531Z,1007.74
2018-03-28T11:25:45.551Z,1007.75
2018-03-28T11:26:45.525Z,1007.7
2018-03-28T11:27:45.560Z,1007.69
2018-03-28T11:28:45.539Z,1007.71
2018-03-28T11:29:45.746Z,1007.64
2018-03-28T11:30:45.710Z,1007.61
2018-03-28T11:31:45.590Z,1007.57
2018-03-28T11:32:45.553Z,1007.54
2018-03-28T11:33:45.582Z,1007.51
2018-03-28T11:34:45.559Z,1007.56
2018-03-28T11:35:45.512Z,1007.49
2018-03-28T11:36:45.545Z,1007.48
2018-03-28T11:37:45.519Z,1007.49
2018-03-28T11:38:45.550Z,1007.43
2018-03-28T11:39:45.482Z,1007.44
2018-03-28T11:40:45.544Z,1007.41
2018-03-28T11:41:45.567Z,1007.38
2018-03-28T11:42:45.485Z,1007.37
2018-03-28T11:43:45.526Z,1007.38
2018-03-28T11:44:45.498Z,1007.37
2018-03-28T11:45:45.516Z,1007.37
2018-03-28T11:46:45.544Z,1007.37
2018-03-28T11:47:45.519Z,1007.31
2018-03-28T11:48:45.534Z,1007.31
2018-03-28T11:49:45.525Z,1007.35
2018-03-28T11:50:45.538Z,1007.38
2018-03-28T11:51:45.518Z,1007.34
2018-03-28T11:52:45.504Z,1007.32
2018-03-28T11:53:45.496Z,1007.25
2018-03-28T11:54:45.525Z,1007.32
2018-03-28T11:55:45.506Z,1007.32
2018-03-28T11:56:45.609Z,1007.32
2018-03-28T11:57:45.589Z,1007.28
2018-03-28T11:58:45.522Z,1007.37
2018-03-28T11:59:45.530Z,1007.3
2018-03-28T12:00:45.501Z,1007.31
2018-03-28T12:01:45.524Z,1007.27
2018-03-28T12:02:45.534Z,1007.22
2018-03-28T12:03:45.493Z,1007.23
2018-03-28T12:04:45.811Z,1007.15
2018-03-28T12:05:45.511Z,1007.18
2018-03-28T12:06:45.516Z,1007.19
2018-03-28T12:07:45.504Z,1007.09
2018-03-28T12:08:45.503Z,1007.1